الصفحة الرئيسية
METAR-TAF:

METAR-TAF

مطار :

مطار جبل طارق

جبل طارق, جبل طارق

دائرة عرض: 36-09N, خط طول: 005-21W, ارتفاع: 5 متر

مراقبة الطقس الحالي

تاريخ ووقت الإصدار 28 دقيقة قبل الساعة 01:50UTC
ريح 5 عقدة من الغرب
درجة الحرارة 15°درجة مئوية
الرطوبة 88%
ضغط 1010 hPa
الرؤية 10 كم أو أكثر

METAR: LXGB 190150Z AUTO 27005KT 9999 // SCT023/// SCT048/// 15/13 Q1010

زمن: 04:18 (02:18 UTC)

توقعات

تاريخ ووقت الإصدار 9ساعات و 46 دقيقة قبل الساعة 16:32UTC
التوقعات صالحة من18 الساعة 18 UTC إلى 18 الساعة 22 UTC
ريح 10 عقدة من الغرب/الجنوب الغربي
الرؤية 10 كم أو أكثر
غيوم قليلة على ارتفاع 2000 قدم
غيوم متفرقة على ارتفاع 3000 قدم
مؤقت
من 18 الساعة 18 UTC إلى 18 الساعة 19 UTC
الرؤية: 7000 متر
غيوم مفككة على ارتفاع 2000 قدم, مزن ركامية عمودية.
زخات من المطر

TAF: LXGB 181632Z 1818/1822 25010KT 9999 FEW020 SCT030 TEMPO 1818/1819 7000 SHRA BKN020TCU

أرصاد الطقس والتوقعات من أكثر من 4000 مطار (تقارير الطقس للمطار METAR والتنبؤ بالطقس بالمطارTAF).

المحطات المتاحة هي النقط الصفراء والحمراء على الخريطة.

حرك المؤشر فوق النقطة لمعرفة اسم المحطة.

ثم انقر لمعرفة أرصاد وتوقعات الطقس.

لتغيير الخارطة: اضغط على الأزرار الخضراء مع رمز الصليب الأسود للتكبير. على الزر الأخضر مع شرطة للتصغير، أو على الأسهم الخضراء للخرائط المجاورة.


METAR-TAF: